createdAt,value
2018-06-25T00:03:44.391Z,10.70
2018-06-25T00:08:49.601Z,11.73
2018-06-25T00:13:52.986Z,12.00
2018-06-25T00:18:57.094Z,11.70
2018-06-25T00:24:00.307Z,10.43
2018-06-25T00:29:03.457Z,13.30
2018-06-25T00:34:06.558Z,11.60
2018-06-25T00:39:09.742Z,13.10
2018-06-25T00:44:14.904Z,13.33
2018-06-25T00:49:18.032Z,12.97
2018-06-25T00:54:21.342Z,12.73
2018-06-25T00:59:35.882Z,13.23
2018-06-25T01:04:39.307Z,14.57
2018-06-25T01:09:43.479Z,13.23
2018-06-25T01:14:46.567Z,17.13
2018-06-25T01:19:49.692Z,18.10
2018-06-25T01:24:52.911Z,18.33
2018-06-25T01:29:56.392Z,18.43
2018-06-25T01:34:59.631Z,17.80
2018-06-25T01:40:02.862Z,17.97
2018-06-25T01:45:06.102Z,18.13
2018-06-25T01:50:09.246Z,18.90
2018-06-25T01:55:12.395Z,19.07
2018-06-25T02:00:16.471Z,19.33
2018-06-25T02:05:19.702Z,18.10
2018-06-25T02:10:22.883Z,16.73
2018-06-25T02:15:26.125Z,16.13
2018-06-25T02:20:29.247Z,16.40
2018-06-25T02:25:32.382Z,16.03
2018-06-25T02:30:35.479Z,15.07
2018-06-25T02:35:38.953Z,15.70
2018-06-25T02:40:42.252Z,14.47
2018-06-25T02:45:45.696Z,13.93
2018-06-25T02:50:48.888Z,15.03
2018-06-25T02:55:52.202Z,15.60
2018-06-25T03:00:55.379Z,15.17
2018-06-25T03:05:58.463Z,15.57
2018-06-25T03:11:01.572Z,14.13
2018-06-25T03:16:04.672Z,15.87
2018-06-25T03:21:07.959Z,14.43
2018-06-25T03:26:11.122Z,15.87
2018-06-25T03:31:14.498Z,15.43
2018-06-25T03:36:17.716Z,15.03
2018-06-25T03:41:20.927Z,14.83
2018-06-25T03:46:24.115Z,14.43
2018-06-25T03:51:27.263Z,15.60
2018-06-25T03:56:30.564Z,16.00
2018-06-25T04:01:33.690Z,14.57
2018-06-25T04:06:36.815Z,15.03
2018-06-25T04:11:39.923Z,13.90
2018-06-25T04:16:43.110Z,13.17
2018-06-25T04:21:46.978Z,14.20
2018-06-25T04:26:50.105Z,14.57
2018-06-25T04:31:53.263Z,13.17
2018-06-25T04:36:56.862Z,13.20
2018-06-25T04:42:00.114Z,15.47
2018-06-25T04:47:03.244Z,14.47
2018-06-25T04:52:06.360Z,13.77
2018-06-25T04:57:09.526Z,13.33
2018-06-25T05:02:19.225Z,12.37
2018-06-25T05:07:22.376Z,12.17
2018-06-25T05:12:42.677Z,13.00
2018-06-25T05:17:46.868Z,12.73
2018-06-25T05:22:50.063Z,12.03
2018-06-25T05:33:14.647Z,11.43
2018-06-25T05:38:17.807Z,11.87
2018-06-25T05:43:20.997Z,12.00
2018-06-25T05:48:24.154Z,10.77
2018-06-25T05:53:27.876Z,11.60
2018-06-25T05:58:31.076Z,11.00
2018-06-25T06:03:34.591Z,12.97
2018-06-25T06:08:37.822Z,13.93
2018-06-25T06:13:41.243Z,14.33
2018-06-25T06:18:44.479Z,12.77
2018-06-25T06:23:47.744Z,11.33
2018-06-25T06:28:50.891Z,13.20
2018-06-25T06:33:54.066Z,12.60
2018-06-25T06:38:57.278Z,12.83
2018-06-25T06:44:00.446Z,14.63
2018-06-25T06:49:03.706Z,15.90
2018-06-25T06:54:07.102Z,15.67
2018-06-25T06:59:10.389Z,14.27
2018-06-25T07:04:13.579Z,13.17
2018-06-25T07:09:16.729Z,12.37
2018-06-25T07:14:19.975Z,12.43
2018-06-25T07:19:25.217Z,13.23
2018-06-25T07:24:28.553Z,13.87
2018-06-25T07:29:31.799Z,16.83
2018-06-25T07:34:34.995Z,17.17
2018-06-25T07:39:38.110Z,20.47
2018-06-25T07:44:41.235Z,22.17
2018-06-25T07:49:44.415Z,16.90
2018-06-25T07:54:48.549Z,11.63
2018-06-25T07:59:51.841Z,10.57
2018-06-25T08:04:55.165Z,10.43
2018-06-25T08:09:58.389Z,10.87
2018-06-25T08:15:01.525Z,10.93
2018-06-25T08:20:04.956Z,11.53
2018-06-25T08:25:08.141Z,10.03
2018-06-25T08:30:11.506Z,10.23
2018-06-25T08:35:14.709Z,10.97
2018-06-25T08:40:18.543Z,11.00
2018-06-25T08:45:21.781Z,10.63
2018-06-25T08:50:25.043Z,10.50
2018-06-25T08:55:28.327Z,9.37
2018-06-25T09:00:31.456Z,7.67
2018-06-25T09:05:34.684Z,7.67
2018-06-25T09:10:37.886Z,7.07
2018-06-25T09:15:41.051Z,7.13
2018-06-25T09:20:44.230Z,7.90
2018-06-25T09:25:47.307Z,7.53
2018-06-25T09:30:50.435Z,7.37
2018-06-25T09:35:53.587Z,7.40
2018-06-25T09:40:56.854Z,6.50
2018-06-25T09:46:00.101Z,5.83
2018-06-25T09:51:03.893Z,4.90
2018-06-25T09:56:07.105Z,5.27
2018-06-25T10:01:10.381Z,6.03
2018-06-25T10:06:13.671Z,5.37
2018-06-25T10:11:16.796Z,5.33
2018-06-25T10:16:19.940Z,5.47
2018-06-25T10:21:23.068Z,6.20
2018-06-25T10:26:26.330Z,4.83
2018-06-25T10:31:29.491Z,5.13
2018-06-25T10:36:32.676Z,4.97
2018-06-25T10:41:36.057Z,5.47
2018-06-25T10:46:39.421Z,4.53
2018-06-25T10:51:42.627Z,4.73
2018-06-25T10:56:45.760Z,4.43
2018-06-25T11:01:48.982Z,4.50
2018-06-25T11:06:52.106Z,4.20
2018-06-25T11:11:55.380Z,4.10
2018-06-25T11:16:58.526Z,4.17
2018-06-25T11:22:01.651Z,4.13
2018-06-25T11:27:05.200Z,3.53
2018-06-25T11:32:08.242Z,3.73
2018-06-25T11:37:11.461Z,3.90
2018-06-25T11:42:14.632Z,3.43
2018-06-25T11:47:17.782Z,3.77
2018-06-25T11:52:21.419Z,3.37
2018-06-25T11:57:24.595Z,3.50
2018-06-25T12:02:27.873Z,3.03
2018-06-25T12:07:30.998Z,3.23
2018-06-25T12:12:34.148Z,2.90
2018-06-25T12:17:37.365Z,2.97
2018-06-25T12:22:40.415Z,2.97
2018-06-25T12:27:43.762Z,2.97
2018-06-25T12:32:47.045Z,2.87
2018-06-25T12:37:51.455Z,2.80
2018-06-25T12:42:57.049Z,2.70
2018-06-25T12:48:02.468Z,2.93
2018-06-25T12:53:06.771Z,3.37
2018-06-25T12:58:10.631Z,2.93
2018-06-25T13:03:14.762Z,3.20
2018-06-25T13:08:18.231Z,3.03
2018-06-25T13:13:21.416Z,3.03
2018-06-25T13:18:25.419Z,2.80
2018-06-25T13:23:30.878Z,3.20
2018-06-25T13:28:35.953Z,2.90
2018-06-25T13:33:39.251Z,3.13
2018-06-25T13:38:44.022Z,2.50
2018-06-25T13:43:54.216Z,3.00
2018-06-25T13:48:59.024Z,2.70
2018-06-25T13:54:02.634Z,3.03
2018-06-25T14:04:28.328Z,2.87
2018-06-25T14:09:33.009Z,2.60
2018-06-25T14:14:36.835Z,2.60
2018-06-25T14:19:40.682Z,2.90
2018-06-25T14:24:44.282Z,2.20
2018-06-25T14:29:47.695Z,2.93
2018-06-25T14:34:50.946Z,2.63
2018-06-25T14:39:58.477Z,2.73
2018-06-25T14:45:02.460Z,2.90
2018-06-25T14:50:05.705Z,3.13
2018-06-25T14:55:08.866Z,3.33
2018-06-25T15:00:11.974Z,3.77
2018-06-25T15:05:15.152Z,3.47
2018-06-25T15:10:18.296Z,2.97
2018-06-25T15:15:21.572Z,3.20
2018-06-25T15:20:25.668Z,3.20
2018-06-25T15:25:29.150Z,3.40
2018-06-25T15:30:32.348Z,4.13
2018-06-25T15:35:35.637Z,3.70
2018-06-25T15:40:38.851Z,3.90
2018-06-25T15:45:42.032Z,4.37
2018-06-25T15:50:45.313Z,4.17
2018-06-25T15:55:48.530Z,4.07
2018-06-25T16:00:51.780Z,4.20
2018-06-25T16:05:55.091Z,3.97
2018-06-25T16:10:58.463Z,4.23
2018-06-25T16:16:01.861Z,4.37
2018-06-25T16:21:05.705Z,3.53
2018-06-25T16:26:09.170Z,3.60
2018-06-25T16:31:12.496Z,3.37
2018-06-25T16:36:16.071Z,3.70
2018-06-25T16:41:19.268Z,3.43
2018-06-25T16:46:23.138Z,2.80
2018-06-25T16:51:26.284Z,3.33
2018-06-25T16:56:29.521Z,3.50
2018-06-25T17:01:32.842Z,2.73
2018-06-25T17:06:36.485Z,2.93
2018-06-25T17:11:39.895Z,2.90
2018-06-25T17:16:43.104Z,2.87
2018-06-25T17:21:46.560Z,3.00
2018-06-25T17:26:49.943Z,3.10
2018-06-25T17:31:53.145Z,3.20
2018-06-25T17:36:56.371Z,3.97
2018-06-25T17:41:59.535Z,2.87
2018-06-25T17:47:02.663Z,3.33
2018-06-25T17:52:05.872Z,3.70
2018-06-25T17:57:09.078Z,3.80
2018-06-25T18:02:12.300Z,3.90
2018-06-25T18:07:15.721Z,4.47
2018-06-25T18:12:19.055Z,5.30
2018-06-25T18:17:22.239Z,4.73
2018-06-25T18:22:25.370Z,4.87
2018-06-25T18:27:28.518Z,5.57
2018-06-25T18:32:31.649Z,5.90
2018-06-25T18:37:34.854Z,5.73
2018-06-25T18:42:38.099Z,5.47
2018-06-25T18:47:41.472Z,5.50
2018-06-25T18:52:44.704Z,5.43
2018-06-25T18:57:47.989Z,5.83
2018-06-25T19:02:51.766Z,5.10
2018-06-25T19:07:55.055Z,5.40
2018-06-25T19:12:58.451Z,5.33
2018-06-25T19:18:01.735Z,5.73
2018-06-25T19:23:05.015Z,5.33
2018-06-25T19:28:08.154Z,6.30
2018-06-25T19:33:11.488Z,6.70
2018-06-25T19:38:16.892Z,7.37
2018-06-25T19:43:20.144Z,7.07
2018-06-25T19:48:23.379Z,7.67
2018-06-25T19:53:26.603Z,8.20
2018-06-25T19:58:30.472Z,7.67
2018-06-25T20:03:35.790Z,7.23
2018-06-25T20:08:40.488Z,8.10
2018-06-25T20:13:43.704Z,8.07
2018-06-25T20:18:51.897Z,8.13
2018-06-25T20:23:57.437Z,9.20
2018-06-25T20:29:00.559Z,8.67
2018-06-25T20:34:04.760Z,8.50
2018-06-25T20:39:11.650Z,8.17
2018-06-25T20:44:16.465Z,8.10
2018-06-25T20:49:19.768Z,8.30
2018-06-25T20:54:22.957Z,8.30
2018-06-25T20:59:26.230Z,8.20
2018-06-25T21:04:29.348Z,8.50
2018-06-25T21:09:32.475Z,8.77
2018-06-25T21:14:35.614Z,8.60
2018-06-25T21:19:38.691Z,9.03
2018-06-25T21:24:41.847Z,10.73
2018-06-25T21:29:44.986Z,21.10
2018-06-25T21:34:49.242Z,26.03
2018-06-25T21:39:52.580Z,24.47
2018-06-25T21:44:55.802Z,32.50
2018-06-25T21:49:58.970Z,24.27
2018-06-25T21:55:02.077Z,13.90
2018-06-25T22:00:08.509Z,15.90
2018-06-25T22:05:11.822Z,11.23
2018-06-25T22:10:14.899Z,10.20
2018-06-25T22:15:18.097Z,11.60
2018-06-25T22:20:21.367Z,12.13
2018-06-25T22:25:24.698Z,18.07
2018-06-25T22:30:27.933Z,21.30
2018-06-25T22:35:31.100Z,12.57
2018-06-25T22:40:34.881Z,11.23
2018-06-25T22:45:38.784Z,9.70
2018-06-25T22:50:41.890Z,9.70
2018-06-25T22:55:45.039Z,8.33
2018-06-25T23:00:48.167Z,9.03
2018-06-25T23:05:51.368Z,9.03
2018-06-25T23:10:54.633Z,9.93
2018-06-25T23:15:57.745Z,9.60
2018-06-25T23:21:00.908Z,9.73
2018-06-25T23:26:04.249Z,10.13
2018-06-25T23:31:07.428Z,10.90
2018-06-25T23:36:10.526Z,10.83
2018-06-25T23:41:13.687Z,11.43
2018-06-25T23:46:17.355Z,11.90
2018-06-25T23:51:20.583Z,11.67
2018-06-25T23:56:23.909Z,11.10
